Time;durP1;ratioP1;P1;durP2;ratioP2;P2;SDS_P1;SDS_P2;PMS_P1;PMS_P2;Temp;Humidity;BMP_temperature;BMP_pressure;BME280_temperature;BME280_humidity;BME280_pressure;Samples;Min_cycle;Max_cycle;Signal;HPM_P1;HPM_P2
2022/12/29 00:02:19;;;;;;;12.45;6.78;;;;;;;;;;5016349;28;20021;-40
2022/12/29 00:04:44;;;;;;;10.73;5.68;;;;;;;;;;5033972;28;20426;-40
2022/12/29 00:07:10;;;;;;;19.20;7.75;;;;;;;;;;5034037;28;20028;-40
2022/12/29 00:09:35;;;;;;;16.88;7.00;;;;;;;;;;5033781;28;20052;-40
2022/12/29 00:12:01;;;;;;;18.65;6.22;;;;;;;;;;5033974;28;20033;-40
2022/12/29 00:17:11;;;;;;;17.27;7.43;;;;;;;;;;5033749;28;20527;-40
2022/12/29 00:36:05;;;;;;;11.43;6.35;;;;;;;;;;5015738;28;20082;-40
2022/12/29 00:44:06;;;;;;;16.15;6.63;;;;;;;;;;5033372;28;20025;-40
2022/12/29 00:46:35;;;;;;;15.73;6.60;;;;;;;;;;5031717;28;20393;-40
2022/12/29 00:51:45;;;;;;;19.55;6.82;;;;;;;;;;5033109;28;20083;-40
2022/12/29 00:54:10;;;;;;;19.02;8.80;;;;;;;;;;5015337;28;20022;-40
2022/12/29 00:56:36;;;;;;;20.17;9.00;;;;;;;;;;5033040;28;20025;-40
2022/12/29 00:59:05;;;;;;;17.77;8.70;;;;;;;;;;5032966;28;20021;-40
2022/12/29 01:01:31;;;;;;;16.00;7.13;;;;;;;;;;5032967;28;20469;-40
2022/12/29 01:03:57;;;;;;;13.25;7.35;;;;;;;;;;5032021;28;20028;-40
2022/12/29 01:06:22;;;;;;;13.95;6.75;;;;;;;;;;5032880;28;20032;-40
2022/12/29 01:10:09;;;;;;;15.82;6.70;;;;;;;;;;5032831;28;20093;-40
2022/12/29 01:11:33;;;;;;;16.75;8.27;;;;;;;;;;5032645;28;20048;-41
2022/12/29 01:13:58;;;;;;;18.65;8.27;;;;;;;;;;5014910;28;20116;-40
2022/12/29 01:16:24;;;;;;;21.85;6.13;;;;;;;;;;5032773;28;20034;-40
2022/12/29 01:18:49;;;;;;;20.58;7.97;;;;;;;;;;5032853;28;20033;-40
2022/12/29 01:21:15;;;;;;;9.38;6.15;;;;;;;;;;5032563;28;20061;-40
2022/12/29 01:23:40;;;;;;;16.50;7.93;;;;;;;;;;5014794;28;20475;-40
2022/12/29 01:26:09;;;;;;;21.55;7.70;;;;;;;;;;5032585;28;20463;-40
2022/12/29 01:28:35;;;;;;;12.23;6.20;;;;;;;;;;5014544;28;20033;-40
2022/12/29 01:31:00;;;;;;;13.93;6.60;;;;;;;;;;5014690;28;20045;-40
2022/12/29 01:33:26;;;;;;;18.35;7.72;;;;;;;;;;5032404;28;20032;-40
2022/12/29 01:35:51;;;;;;;15.10;6.65;;;;;;;;;;5032444;28;20112;-40
2022/12/29 01:38:16;;;;;;;14.20;7.05;;;;;;;;;;5014545;28;20365;-40
2022/12/29 01:40:43;;;;;;;12.38;7.85;;;;;;;;;;5014792;28;20435;-40
2022/12/29 01:43:10;;;;;;;15.50;7.65;;;;;;;;;;5032073;28;20631;-40
2022/12/29 01:45:45;;;;;;;14.88;5.85;;;;;;;;;;5014405;28;20044;-40
2022/12/29 01:48:11;;;;;;;15.85;7.57;;;;;;;;;;5014381;28;20046;-40
2022/12/29 01:50:39;;;;;;;15.93;7.47;;;;;;;;;;5031904;28;20041;-40
2022/12/29 01:53:09;;;;;;;13.93;6.80;;;;;;;;;;5014258;28;20116;-40
2022/12/29 01:55:40;;;;;;;18.65;9.02;;;;;;;;;;5032136;28;20052;-40
2022/12/29 01:58:08;;;;;;;16.80;7.53;;;;;;;;;;5014208;28;20494;-41
2022/12/29 02:00:33;;;;;;;20.48;7.95;;;;;;;;;;5031852;28;20037;-40
2022/12/29 02:02:59;;;;;;;17.10;6.95;;;;;;;;;;5031813;28;20025;-40
2022/12/29 02:05:30;;;;;;;12.35;5.93;;;;;;;;;;5031764;28;20061;-40
2022/12/29 02:07:55;;;;;;;13.13;6.22;;;;;;;;;;5030378;28;20029;-40
2022/12/29 02:10:21;;;;;;;13.52;7.07;;;;;;;;;;5031697;28;20048;-40
2022/12/29 02:12:47;;;;;;;11.73;5.22;;;;;;;;;;5030278;28;20026;-40
2022/12/29 02:15:13;;;;;;;10.35;6.05;;;;;;;;;;5031159;28;20025;-40
2022/12/29 02:17:38;;;;;;;13.73;7.18;;;;;;;;;;5031524;28;20032;-40
2022/12/29 02:20:23;;;;;;;11.40;6.18;;;;;;;;;;5013859;28;20033;-40
2022/12/29 02:22:55;;;;;;;17.17;7.90;;;;;;;;;;5030154;28;20484;-40
2022/12/29 02:25:26;;;;;;;11.60;6.18;;;;;;;;;;5013860;28;20049;-40
2022/12/29 02:27:53;;;;;;;10.27;7.03;;;;;;;;;;5030147;28;20068;-40
2022/12/29 02:30:37;;;;;;;11.85;6.88;;;;;;;;;;5031344;28;20119;-40
2022/12/29 02:33:11;;;;;;;16.58;7.38;;;;;;;;;;5030052;28;20463;-40
2022/12/29 02:35:46;;;;;;;12.00;6.65;;;;;;;;;;5013641;28;20022;-40
2022/12/29 02:38:21;;;;;;;11.07;6.45;;;;;;;;;;5013642;28;20055;-41
2022/12/29 02:40:57;;;;;;;9.95;5.53;;;;;;;;;;5031575;28;20033;-40
2022/12/29 02:43:34;;;;;;;16.23;7.38;;;;;;;;;;5031327;28;20025;-40
2022/12/29 02:46:05;;;;;;;14.77;7.18;;;;;;;;;;5031339;28;20083;-40
2022/12/29 02:48:32;;;;;;;14.50;6.68;;;;;;;;;;5013568;28;20404;-40
2022/12/29 02:51:01;;;;;;;15.80;6.20;;;;;;;;;;5013536;28;20068;-40
2022/12/29 02:56:11;;;;;;;16.17;6.35;;;;;;;;;;5031315;28;20029;-40
2022/12/29 02:58:36;;;;;;;18.70;7.18;;;;;;;;;;5013393;28;20096;-40
2022/12/29 03:01:08;;;;;;;10.18;6.15;;;;;;;;;;5031122;28;20029;-40
2022/12/29 03:03:52;;;;;;;11.73;6.25;;;;;;;;;;5013309;28;20025;-41
2022/12/29 03:06:20;;;;;;;15.93;7.70;;;;;;;;;;5013383;28;20044;-40
2022/12/29 03:08:49;;;;;;;14.20;6.57;;;;;;;;;;5013217;28;20040;-40
2022/12/29 03:17:10;;;;;;;12.07;5.95;;;;;;;;;;5013276;28;20042;-40
2022/12/29 03:19:37;;;;;;;15.82;5.82;;;;;;;;;;5013271;28;20041;-40
2022/12/29 03:22:26;;;;;;;16.83;7.05;;;;;;;;;;5030983;28;20494;-41
2022/12/29 03:25:05;;;;;;;14.10;6.53;;;;;;;;;;5029762;28;20045;-41
2022/12/29 03:27:33;;;;;;;21.45;6.65;;;;;;;;;;5032592;28;20029;-40
2022/12/29 03:30:01;;;;;;;14.43;7.13;;;;;;;;;;5034535;28;20480;-40
2022/12/29 03:32:34;;;;;;;13.35;7.18;;;;;;;;;;5016926;28;20079;-40
2022/12/29 03:35:01;;;;;;;14.32;7.03;;;;;;;;;;5033314;28;20029;-40
2022/12/29 03:37:43;;;;;;;14.05;5.85;;;;;;;;;;5016726;28;20067;-41
2022/12/29 03:40:08;;;;;;;11.43;5.63;;;;;;;;;;5016839;28;20064;-40
2022/12/29 03:42:35;;;;;;;15.60;7.63;;;;;;;;;;5016579;28;20053;-40
2022/12/29 03:45:01;;;;;;;10.02;6.50;;;;;;;;;;5016666;28;20491;-40
2022/12/29 03:47:27;;;;;;;11.93;6.28;;;;;;;;;;5016491;28;20050;-40
2022/12/29 03:49:52;;;;;;;11.82;5.97;;;;;;;;;;5032865;28;20040;-40
2022/12/29 03:52:18;;;;;;;15.52;5.75;;;;;;;;;;5034543;28;20021;-40
2022/12/29 03:54:45;;;;;;;15.77;7.25;;;;;;;;;;5016365;28;20796;-40
2022/12/29 03:57:12;;;;;;;14.80;6.47;;;;;;;;;;5016509;28;20021;-40
2022/12/29 03:59:49;;;;;;;15.35;6.03;;;;;;;;;;5016349;28;20099;-43
2022/12/29 04:02:14;;;;;;;14.27;5.93;;;;;;;;;;5016450;28;20029;-40
2022/12/29 04:04:40;;;;;;;12.10;5.63;;;;;;;;;;5016176;28;20029;-40
2022/12/29 04:07:06;;;;;;;11.40;5.72;;;;;;;;;;5016252;28;20029;-41
2022/12/29 04:09:31;;;;;;;20.55;6.57;;;;;;;;;;5016191;28;20025;-40
2022/12/29 04:11:57;;;;;;;11.60;5.95;;;;;;;;;;5034176;28;20029;-40
2022/12/29 04:14:23;;;;;;;14.15;7.25;;;;;;;;;;5016206;28;20091;-40
2022/12/29 04:16:49;;;;;;;12.98;6.78;;;;;;;;;;5032486;28;20065;-40
2022/12/29 04:19:14;;;;;;;10.45;6.13;;;;;;;;;;5016006;28;20030;-40
2022/12/29 04:21:41;;;;;;;6.85;5.00;;;;;;;;;;5015929;28;20033;-40
2022/12/29 04:24:06;;;;;;;10.95;5.47;;;;;;;;;;5015913;28;20076;-41
2022/12/29 04:26:34;;;;;;;12.70;5.95;;;;;;;;;;5032340;28;20040;-41
2022/12/29 04:29:07;;;;;;;12.43;5.55;;;;;;;;;;5015872;28;20024;-41
2022/12/29 04:32:05;;;;;;;17.55;6.80;;;;;;;;;;4978979;28;20500;-40
2022/12/29 04:34:32;;;;;;;10.68;6.00;;;;;;;;;;5015730;28;20458;-40
2022/12/29 04:36:58;;;;;;;19.52;6.70;;;;;;;;;;5033409;28;20104;-40
2022/12/29 04:39:24;;;;;;;14.45;7.20;;;;;;;;;;5015404;28;20025;-40
2022/12/29 04:41:49;;;;;;;15.38;6.85;;;;;;;;;;5015543;28;20358;-40
2022/12/29 04:44:18;;;;;;;13.15;6.53;;;;;;;;;;5015538;28;20057;-40
2022/12/29 04:47:12;;;;;;;9.88;6.53;;;;;;;;;;4979022;28;20043;-40
2022/12/29 04:49:58;;;;;;;12.23;5.25;;;;;;;;;;5032933;28;20354;-40
2022/12/29 04:52:46;;;;;;;20.60;6.95;;;;;;;;;;5032632;28;20124;-41
2022/12/29 04:55:13;;;;;;;11.45;6.40;;;;;;;;;;5015387;28;20029;-40
2022/12/29 04:57:39;;;;;;;12.38;4.88;;;;;;;;;;5015214;28;20017;-40
2022/12/29 05:00:08;;;;;;;10.63;5.53;;;;;;;;;;5015355;28;20087;-41
2022/12/29 05:02:35;;;;;;;12.73;5.32;;;;;;;;;;5014993;28;20022;-40
2022/12/29 05:05:01;;;;;;;11.60;6.40;;;;;;;;;;5031667;28;20439;-40
2022/12/29 05:07:26;;;;;;;14.35;6.15;;;;;;;;;;5015288;28;20025;-40
2022/12/29 05:09:53;;;;;;;12.38;6.47;;;;;;;;;;5014875;28;20050;-40
2022/12/29 05:12:19;;;;;;;13.70;5.97;;;;;;;;;;5015111;28;20094;-41
2022/12/29 05:14:54;;;;;;;13.25;6.28;;;;;;;;;;5032666;28;20048;-41
2022/12/29 05:17:19;;;;;;;13.07;6.40;;;;;;;;;;5014895;28;20033;-43
2022/12/29 05:19:44;;;;;;;11.48;6.32;;;;;;;;;;5032603;28;20049;-40
2022/12/29 05:22:11;;;;;;;11.13;6.10;;;;;;;;;;5014853;28;20033;-40
2022/12/29 05:24:37;;;;;;;14.50;6.15;;;;;;;;;;5014722;28;20013;-41
2022/12/29 05:27:02;;;;;;;17.75;5.68;;;;;;;;;;5014804;28;20025;-40
2022/12/29 05:29:46;;;;;;;7.65;4.45;;;;;;;;;;5014540;28;20033;-40
2022/12/29 05:32:11;;;;;;;10.80;5.65;;;;;;;;;;5014752;28;20435;-40
2022/12/29 05:34:37;;;;;;;12.80;6.82;;;;;;;;;;5014663;28;20387;-40
2022/12/29 05:37:02;;;;;;;10.77;5.90;;;;;;;;;;5032553;28;20136;-40
2022/12/29 05:39:28;;;;;;;14.95;5.82;;;;;;;;;;5014501;28;20746;-40
2022/12/29 05:41:57;;;;;;;13.73;6.15;;;;;;;;;;5014539;28;20705;-40
2022/12/29 05:44:35;;;;;;;15.88;8.10;;;;;;;;;;5014360;28;20026;-40
2022/12/29 05:47:23;;;;;;;16.00;6.30;;;;;;;;;;5026378;28;20128;-40
2022/12/29 05:50:06;;;;;;;18.33;6.35;;;;;;;;;;5013796;28;20045;-40
2022/12/29 05:52:50;;;;;;;12.65;6.05;;;;;;;;;;5031961;28;20051;-40
2022/12/29 05:55:16;;;;;;;11.30;5.38;;;;;;;;;;5014283;28;20040;-41
2022/12/29 05:57:44;;;;;;;12.35;6.53;;;;;;;;;;5014248;28;20021;-40
2022/12/29 06:00:13;;;;;;;13.50;7.40;;;;;;;;;;5014159;28;20036;-40
2022/12/29 06:02:42;;;;;;;11.80;5.35;;;;;;;;;;5013974;28;20014;-40
2022/12/29 06:05:08;;;;;;;10.77;6.47;;;;;;;;;;5030525;28;20033;-40
2022/12/29 06:07:35;;;;;;;7.55;4.85;;;;;;;;;;5013990;28;20022;-40
2022/12/29 06:10:01;;;;;;;13.00;5.38;;;;;;;;;;5014059;28;20048;-40
2022/12/29 06:12:30;;;;;;;12.38;5.15;;;;;;;;;;5030388;28;20022;-40
2022/12/29 06:14:56;;;;;;;11.27;5.43;;;;;;;;;;5013954;28;20080;-40
2022/12/29 06:17:21;;;;;;;15.75;7.45;;;;;;;;;;5013983;28;20095;-40
2022/12/29 06:19:48;;;;;;;11.52;5.93;;;;;;;;;;5013809;28;20124;-40
2022/12/29 06:22:13;;;;;;;11.45;5.82;;;;;;;;;;5031606;28;20100;-41
2022/12/29 06:24:40;;;;;;;12.57;6.05;;;;;;;;;;5030223;28;20022;-40
2022/12/29 06:27:06;;;;;;;16.40;6.05;;;;;;;;;;5013823;28;20392;-42
2022/12/29 06:29:31;;;;;;;20.13;6.75;;;;;;;;;;5030171;28;20404;-40
2022/12/29 06:31:58;;;;;;;15.25;6.53;;;;;;;;;;5013705;28;20036;-40
2022/12/29 06:34:24;;;;;;;15.02;7.22;;;;;;;;;;5030101;28;20603;-40
2022/12/29 06:36:49;;;;;;;15.32;6.38;;;;;;;;;;5013554;28;20116;-41
2022/12/29 06:39:14;;;;;;;10.77;5.90;;;;;;;;;;5013681;28;20079;-41
2022/12/29 06:41:47;;;;;;;15.13;6.75;;;;;;;;;;5013574;28;20086;-40
2022/12/29 06:44:31;;;;;;;13.88;6.15;;;;;;;;;;5031406;28;20124;-40
2022/12/29 06:47:00;;;;;;;9.40;5.45;;;;;;;;;;5031079;28;20053;-40
2022/12/29 06:49:25;;;;;;;8.30;5.60;;;;;;;;;;5031104;28;20029;-40
2022/12/29 06:51:51;;;;;;;12.68;6.95;;;;;;;;;;5031175;28;20044;-40
2022/12/29 06:54:16;;;;;;;7.50;5.13;;;;;;;;;;5031235;28;20029;-40
2022/12/29 06:56:41;;;;;;;13.68;6.03;;;;;;;;;;5031132;28;20040;-40
2022/12/29 06:59:07;;;;;;;13.15;6.07;;;;;;;;;;5031527;28;20018;-40
2022/12/29 07:01:32;;;;;;;13.18;5.90;;;;;;;;;;5033226;28;20376;-40
2022/12/29 07:03:58;;;;;;;15.95;5.40;;;;;;;;;;5035015;28;20021;-42
2022/12/29 07:06:23;;;;;;;8.95;4.82;;;;;;;;;;5035439;28;20030;-40
2022/12/29 07:08:48;;;;;;;11.50;5.00;;;;;;;;;;5035275;28;20099;-40
2022/12/29 07:11:14;;;;;;;9.52;4.78;;;;;;;;;;5035006;28;20492;-40
2022/12/29 07:13:40;;;;;;;13.15;5.47;;;;;;;;;;5034915;28;20036;-40
2022/12/29 07:16:09;;;;;;;13.73;5.70;;;;;;;;;;5034998;28;20107;-40
2022/12/29 07:18:35;;;;;;;12.70;7.10;;;;;;;;;;5033816;28;20076;-40
2022/12/29 07:21:00;;;;;;;23.60;5.95;;;;;;;;;;5034825;28;20423;-40
2022/12/29 07:23:25;;;;;;;14.73;6.22;;;;;;;;;;5034848;28;20053;-40
2022/12/29 07:25:58;;;;;;;8.45;4.95;;;;;;;;;;5034727;28;20668;-40
2022/12/29 07:28:23;;;;;;;10.32;5.45;;;;;;;;;;5034813;28;20036;-40
2022/12/29 07:30:49;;;;;;;13.70;6.72;;;;;;;;;;5034534;28;20033;-40
2022/12/29 07:33:14;;;;;;;15.40;7.95;;;;;;;;;;5034682;28;20083;-40
2022/12/29 07:35:39;;;;;;;19.42;7.93;;;;;;;;;;5034621;28;20049;-40
2022/12/29 07:38:05;;;;;;;19.27;6.78;;;;;;;;;;5034811;28;20040;-40
2022/12/29 07:40:30;;;;;;;18.33;8.23;;;;;;;;;;5034596;28;20100;-40
2022/12/29 07:42:55;;;;;;;18.77;8.23;;;;;;;;;;5034611;28;20025;-40
2022/12/29 07:45:30;;;;;;;12.13;5.68;;;;;;;;;;5016755;28;20021;-40
2022/12/29 07:48:09;;;;;;;17.35;7.57;;;;;;;;;;5034722;28;20164;-40
2022/12/29 07:50:35;;;;;;;14.05;6.13;;;;;;;;;;5034303;28;20045;-40
2022/12/29 07:53:00;;;;;;;11.90;6.18;;;;;;;;;;5016371;28;20032;-39
2022/12/29 07:55:25;;;;;;;12.70;6.60;;;;;;;;;;5034577;28;20033;-40
2022/12/29 07:57:54;;;;;;;8.48;5.00;;;;;;;;;;5034206;28;20017;-40
2022/12/29 08:00:20;;;;;;;12.60;6.20;;;;;;;;;;5034203;28;20037;-40
2022/12/29 08:02:45;;;;;;;17.20;7.95;;;;;;;;;;5034259;28;20032;-40
2022/12/29 08:05:11;;;;;;;14.07;6.43;;;;;;;;;;5034367;28;20380;-40
2022/12/29 08:07:36;;;;;;;13.30;6.18;;;;;;;;;;5016336;28;20495;-40
2022/12/29 08:10:02;;;;;;;13.40;6.07;;;;;;;;;;5034133;28;20036;-40
2022/12/29 08:12:27;;;;;;;15.63;5.85;;;;;;;;;;5033645;28;20029;-40
2022/12/29 08:14:53;;;;;;;8.90;5.30;;;;;;;;;;5034037;28;20480;-40
2022/12/29 08:17:18;;;;;;;12.88;6.13;;;;;;;;;;5034188;28;20534;-40
2022/12/29 08:19:43;;;;;;;18.05;6.10;;;;;;;;;;5034021;28;20032;-40
2022/12/29 08:22:09;;;;;;;14.32;6.63;;;;;;;;;;5033704;28;20018;-40
2022/12/29 08:24:35;;;;;;;19.13;6.45;;;;;;;;;;5034113;28;20035;-40
2022/12/29 08:27:00;;;;;;;28.55;6.47;;;;;;;;;;5033615;28;20018;-40
2022/12/29 08:29:26;;;;;;;17.65;7.22;;;;;;;;;;5033553;28;20026;-40
2022/12/29 08:31:51;;;;;;;13.73;6.32;;;;;;;;;;5033469;28;20490;-40
2022/12/29 08:34:17;;;;;;;15.73;6.20;;;;;;;;;;5033380;28;20053;-40
2022/12/29 08:36:42;;;;;;;18.67;6.40;;;;;;;;;;5033385;28;20021;-40
2022/12/29 08:39:08;;;;;;;14.05;5.93;;;;;;;;;;5033424;28;20028;-40
2022/12/29 08:41:33;;;;;;;13.48;5.70;;;;;;;;;;5033742;28;20022;-40
2022/12/29 08:43:59;;;;;;;12.27;6.03;;;;;;;;;;5033538;28;20048;-40
2022/12/29 08:46:24;;;;;;;9.88;5.28;;;;;;;;;;5033374;28;20622;-41
2022/12/29 08:48:49;;;;;;;12.20;6.50;;;;;;;;;;5033258;28;20029;-40
2022/12/29 08:51:15;;;;;;;7.68;4.40;;;;;;;;;;5033219;28;20045;-40
2022/12/29 08:53:40;;;;;;;11.15;4.78;;;;;;;;;;5033109;28;20025;-40
2022/12/29 08:56:06;;;;;;;16.77;5.93;;;;;;;;;;5033149;28;20014;-39
2022/12/29 08:58:41;;;;;;;12.30;6.38;;;;;;;;;;5015319;28;20028;-40
2022/12/29 09:01:07;;;;;;;18.90;6.97;;;;;;;;;;5033394;28;20376;-40
2022/12/29 09:03:32;;;;;;;24.90;6.57;;;;;;;;;;5015177;28;20376;-40
2022/12/29 09:05:57;;;;;;;16.73;6.95;;;;;;;;;;5032782;28;20037;-40
2022/12/29 09:08:23;;;;;;;12.90;6.40;;;;;;;;;;5033014;28;20014;-40
2022/12/29 09:10:49;;;;;;;14.07;5.93;;;;;;;;;;5032868;28;20500;-40
2022/12/29 09:13:15;;;;;;;18.58;5.82;;;;;;;;;;5032836;28;20491;-40
2022/12/29 09:15:40;;;;;;;13.63;6.18;;;;;;;;;;5032707;28;20039;-41
2022/12/29 09:18:07;;;;;;;16.05;6.68;;;;;;;;;;5032669;28;20033;-40
2022/12/29 09:20:32;;;;;;;20.85;7.05;;;;;;;;;;5032785;28;20045;-40
2022/12/29 09:22:58;;;;;;;20.02;8.38;;;;;;;;;;5032552;28;20021;-41
2022/12/29 09:25:24;;;;;;;13.20;6.57;;;;;;;;;;5031637;28;20504;-40
2022/12/29 09:27:53;;;;;;;16.15;7.45;;;;;;;;;;5032444;28;20064;-40
2022/12/29 09:30:19;;;;;;;10.52;6.93;;;;;;;;;;5031207;28;20057;-40
2022/12/29 09:32:44;;;;;;;16.95;6.35;;;;;;;;;;5032309;28;20040;-40
2022/12/29 09:35:10;;;;;;;14.18;6.07;;;;;;;;;;5032710;28;20029;-40
2022/12/29 09:37:35;;;;;;;14.98;6.15;;;;;;;;;;5032671;28;20021;-40
2022/12/29 09:40:01;;;;;;;9.60;4.75;;;;;;;;;;5032166;28;20036;-40
2022/12/29 09:46:23;;;;;;;11.20;4.85;;;;;;;;;;4993160;28;20124;-39
2022/12/29 09:48:53;;;;;;;16.40;6.15;;;;;;;;;;4992945;28;20037;-39
2022/12/29 09:51:21;;;;;;;18.13;5.15;;;;;;;;;;4992857;28;20039;-39
2022/12/29 09:53:51;;;;;;;15.40;7.80;;;;;;;;;;4992854;28;20030;-39
2022/12/29 09:56:26;;;;;;;14.75;6.28;;;;;;;;;;5068839;28;20521;-41
2022/12/29 09:59:14;;;;;;;14.77;6.78;;;;;;;;;;5069029;28;20059;-41
2022/12/29 10:01:45;;;;;;;10.45;5.53;;;;;;;;;;5067454;28;20043;-41
2022/12/29 10:04:11;;;;;;;11.65;5.75;;;;;;;;;;5068707;28;20483;-43
2022/12/29 10:06:42;;;;;;;11.50;6.43;;;;;;;;;;5068649;28;20024;-41
2022/12/29 10:09:17;;;;;;;13.20;6.45;;;;;;;;;;5068723;28;20036;-41
2022/12/29 10:12:01;;;;;;;11.15;6.05;;;;;;;;;;5068473;28;20040;-41
2022/12/29 10:14:32;;;;;;;12.05;6.78;;;;;;;;;;5067472;28;20056;-42
2022/12/29 10:17:04;;;;;;;14.50;6.20;;;;;;;;;;5068799;28;20036;-41
2022/12/29 10:19:48;;;;;;;13.40;6.38;;;;;;;;;;5068357;28;20021;-41
2022/12/29 10:22:23;;;;;;;15.65;6.45;;;;;;;;;;5068457;28;20103;-41
2022/12/29 10:24:50;;;;;;;18.55;6.07;;;;;;;;;;5068210;28;20032;-41
2022/12/29 10:27:16;;;;;;;19.65;7.13;;;;;;;;;;5068579;28;20043;-41
2022/12/29 10:29:54;;;;;;;11.35;5.28;;;;;;;;;;5068227;28;20044;-41
2022/12/29 10:32:31;;;;;;;10.55;5.43;;;;;;;;;;5068439;28;20150;-41
2022/12/29 10:35:15;;;;;;;17.58;6.45;;;;;;;;;;5068003;28;20584;-41
2022/12/29 10:37:50;;;;;;;12.20;6.97;;;;;;;;;;5067999;28;20036;-41
2022/12/29 10:40:23;;;;;;;12.98;6.70;;;;;;;;;;5068032;28;20917;-41
2022/12/29 10:42:51;;;;;;;20.60;6.40;;;;;;;;;;5067852;28;20036;-41
2022/12/29 10:45:18;;;;;;;13.82;5.90;;;;;;;;;;5067934;28;20047;-41
2022/12/29 10:48:02;;;;;;;13.70;5.97;;;;;;;;;;5066447;28;20021;-41
2022/12/29 10:50:29;;;;;;;11.82;5.72;;;;;;;;;;5067884;28;20058;-41
2022/12/29 10:52:56;;;;;;;15.50;7.40;;;;;;;;;;5067828;28;20060;-41
2022/12/29 10:55:24;;;;;;;15.93;5.80;;;;;;;;;;5067457;28;20406;-41
2022/12/29 10:57:50;;;;;;;15.43;6.47;;;;;;;;;;5067566;28;20036;-41
2022/12/29 11:00:20;;;;;;;10.25;5.43;;;;;;;;;;5067862;28;20037;-41
2022/12/29 11:02:45;;;;;;;11.68;5.57;;;;;;;;;;5067696;28;20033;-41
2022/12/29 11:05:28;;;;;;;15.10;5.88;;;;;;;;;;5067452;28;20379;-40
2022/12/29 11:08:01;;;;;;;13.15;5.68;;;;;;;;;;5053685;28;20067;-41
2022/12/29 11:10:33;;;;;;;23.73;7.03;;;;;;;;;;5054195;28;20037;-41
2022/12/29 11:13:04;;;;;;;17.75;6.13;;;;;;;;;;5054157;28;20761;-40
2022/12/29 11:15:46;;;;;;;12.95;5.15;;;;;;;;;;5053848;28;20037;-41
2022/12/29 11:18:19;;;;;;;16.35;7.72;;;;;;;;;;5054363;28;20075;-41
2022/12/29 11:20:44;;;;;;;17.52;7.07;;;;;;;;;;5054043;28;20029;-41
2022/12/29 11:23:22;;;;;;;12.18;7.25;;;;;;;;;;5054160;28;20370;-41
2022/12/29 11:26:11;;;;;;;13.13;5.32;;;;;;;;;;5053858;28;20044;-41
2022/12/29 11:28:37;;;;;;;13.88;5.65;;;;;;;;;;5053227;28;20064;-41
2022/12/29 11:31:04;;;;;;;10.48;6.55;;;;;;;;;;5054037;28;20066;-45
2022/12/29 11:33:30;;;;;;;13.77;5.55;;;;;;;;;;5052539;28;20178;-41
2022/12/29 11:36:01;;;;;;;11.48;3.40;;;;;;;;;;5053945;28;20562;-41
2022/12/29 11:38:34;;;;;;;11.77;5.53;;;;;;;;;;5053745;28;20025;-41
2022/12/29 11:40:59;;;;;;;12.70;5.30;;;;;;;;;;5053699;28;20375;-41
2022/12/29 11:43:25;;;;;;;11.25;5.32;;;;;;;;;;5053822;28;20078;-41
2022/12/29 11:45:52;;;;;;;11.80;6.15;;;;;;;;;;5053481;28;20037;-41
2022/12/29 11:48:18;;;;;;;15.73;6.70;;;;;;;;;;5053578;28;20071;-44
2022/12/29 11:50:49;;;;;;;13.18;6.38;;;;;;;;;;5053630;28;20031;-41
2022/12/29 11:53:26;;;;;;;14.15;5.50;;;;;;;;;;5053400;28;20025;-41
2022/12/29 11:55:54;;;;;;;11.65;6.50;;;;;;;;;;5051853;28;20052;-41
2022/12/29 11:58:19;;;;;;;10.23;5.72;;;;;;;;;;5053495;28;20021;-42
2022/12/29 12:00:45;;;;;;;15.80;7.30;;;;;;;;;;5053515;28;20029;-41
2022/12/29 12:03:11;;;;;;;16.20;7.28;;;;;;;;;;5053155;28;20025;-41
2022/12/29 12:05:40;;;;;;;14.35;7.15;;;;;;;;;;5053021;28;20082;-41
2022/12/29 12:08:08;;;;;;;15.50;5.72;;;;;;;;;;5051825;28;20090;-41
2022/12/29 12:10:38;;;;;;;9.52;6.45;;;;;;;;;;5053017;28;20107;-41
2022/12/29 12:13:16;;;;;;;14.40;7.20;;;;;;;;;;5051683;28;20040;-41
2022/12/29 12:16:02;;;;;;;10.32;5.63;;;;;;;;;;5051816;28;20106;-41
2022/12/29 12:18:38;;;;;;;13.98;6.82;;;;;;;;;;5050432;28;20017;-40
2022/12/29 12:21:08;;;;;;;17.42;8.13;;;;;;;;;;5052845;28;20032;-42
2022/12/29 12:23:33;;;;;;;10.73;6.57;;;;;;;;;;5052645;28;20021;-41
2022/12/29 12:26:02;;;;;;;11.90;5.80;;;;;;;;;;5052992;28;20079;-40
2022/12/29 12:28:48;;;;;;;9.60;5.82;;;;;;;;;;5052710;28;20017;-41
2022/12/29 12:31:17;;;;;;;14.77;6.25;;;;;;;;;;5052910;28;20043;-41
2022/12/29 12:33:44;;;;;;;13.50;6.65;;;;;;;;;;5051128;28;20427;-41
2022/12/29 12:36:28;;;;;;;22.73;6.32;;;;;;;;;;5052993;28;20052;-41
2022/12/29 12:39:06;;;;;;;14.93;7.93;;;;;;;;;;5052464;28;20033;-41
2022/12/29 12:41:34;;;;;;;17.42;6.75;;;;;;;;;;5052296;28;20752;-40
2022/12/29 12:44:18;;;;;;;16.27;6.93;;;;;;;;;;5052294;28;20021;-41
2022/12/29 12:46:52;;;;;;;15.00;7.90;;;;;;;;;;5052292;28;20475;-40
2022/12/29 12:49:17;;;;;;;13.80;7.85;;;;;;;;;;5052206;28;20115;-41
2022/12/29 12:51:42;;;;;;;19.00;8.25;;;;;;;;;;5052168;28;20096;-42
2022/12/29 12:54:14;;;;;;;18.20;6.50;;;;;;;;;;5051936;28;20024;-42
2022/12/29 12:56:57;;;;;;;14.75;5.97;;;;;;;;;;5052077;28;20036;-41
2022/12/29 12:59:23;;;;;;;;;;;;;;;;;;5052625;28;20043;-41
2022/12/29 13:01:49;;;;;;;13.95;5.18;;;;;;;;;;5051988;28;20354;-41
2022/12/29 13:04:34;;;;;;;14.18;6.30;;;;;;;;;;5052000;28;20025;-41
2022/12/29 13:06:59;;;;;;;13.80;6.78;;;;;;;;;;5051973;28;20557;-41
2022/12/29 13:09:32;;;;;;;21.27;7.50;;;;;;;;;;5051911;28;20075;-40
2022/12/29 13:12:17;;;;;;;14.73;6.60;;;;;;;;;;5052225;28;20029;-40
2022/12/29 13:14:48;;;;;;;19.00;8.18;;;;;;;;;;5051610;28;20029;-40
2022/12/29 13:17:29;;;;;;;15.27;7.60;;;;;;;;;;5050554;28;20028;-41
2022/12/29 13:19:54;;;;;;;20.05;7.80;;;;;;;;;;5051666;28;20039;-41
2022/12/29 13:22:38;;;;;;;16.30;6.45;;;;;;;;;;5051789;28;20017;-41
2022/12/29 13:25:03;;;;;;;15.27;7.35;;;;;;;;;;5051651;28;20494;-41
2022/12/29 13:27:49;;;;;;;15.00;5.80;;;;;;;;;;5051987;28;20042;-41
2022/12/29 13:30:21;;;;;;;14.02;5.53;;;;;;;;;;5051353;28;20481;-41
2022/12/29 13:32:59;;;;;;;9.68;5.70;;;;;;;;;;5051812;28;20103;-41
2022/12/29 13:35:32;;;;;;;18.42;7.05;;;;;;;;;;5051494;28;20041;-41
2022/12/29 13:38:03;;;;;;;13.35;5.80;;;;;;;;;;5051704;28;20035;-41
2022/12/29 13:40:33;;;;;;;10.45;5.38;;;;;;;;;;5051805;28;20412;-41
2022/12/29 13:43:00;;;;;;;10.73;6.43;;;;;;;;;;5050545;28;20021;-41
2022/12/29 13:45:28;;;;;;;11.75;5.30;;;;;;;;;;5051349;28;20021;-41
2022/12/29 13:47:53;;;;;;;14.40;5.90;;;;;;;;;;5051277;28;20391;-41
2022/12/29 13:50:20;;;;;;;12.23;6.53;;;;;;;;;;5050126;28;20036;-41
2022/12/29 13:53:04;;;;;;;13.55;6.25;;;;;;;;;;5051538;28;20037;-41
2022/12/29 13:55:32;;;;;;;12.70;5.20;;;;;;;;;;5051186;28;20048;-40
2022/12/29 13:58:05;;;;;;;10.63;5.80;;;;;;;;;;5051641;28;20036;-41
2022/12/29 14:00:51;;;;;;;10.55;4.82;;;;;;;;;;5051522;28;20033;-41
2022/12/29 14:03:36;;;;;;;13.63;5.18;;;;;;;;;;5051261;28;20068;-41
2022/12/29 14:06:04;;;;;;;16.00;5.60;;;;;;;;;;5051167;28;20436;-41
2022/12/29 14:08:33;;;;;;;12.43;5.53;;;;;;;;;;5051216;28;20021;-41
2022/12/29 14:11:02;;;;;;;9.35;4.03;;;;;;;;;;5051210;28;20033;-41
2022/12/29 14:13:28;;;;;;;9.88;6.20;;;;;;;;;;5051021;28;20021;-41
2022/12/29 14:15:59;;;;;;;11.13;5.53;;;;;;;;;;5051256;28;20087;-41
2022/12/29 14:18:26;;;;;;;13.35;6.03;;;;;;;;;;5051104;28;20033;-41
2022/12/29 14:20:55;;;;;;;14.18;6.70;;;;;;;;;;5050902;28;20078;-41
2022/12/29 14:23:29;;;;;;;10.68;5.43;;;;;;;;;;5051068;28;20100;-41
2022/12/29 14:25:57;;;;;;;10.52;6.00;;;;;;;;;;5051303;28;20053;-40
2022/12/29 14:28:27;;;;;;;10.65;5.72;;;;;;;;;;5050968;28;20532;-41
2022/12/29 14:30:54;;;;;;;9.63;5.43;;;;;;;;;;5049654;28;20075;-41
2022/12/29 14:33:21;;;;;;;10.82;5.63;;;;;;;;;;5051239;28;20113;-42
2022/12/29 14:35:49;;;;;;;14.73;6.85;;;;;;;;;;5050930;28;20048;-41
2022/12/29 14:38:27;;;;;;;15.10;4.90;;;;;;;;;;5051025;28;20502;-41
2022/12/29 14:41:12;;;;;;;12.60;6.15;;;;;;;;;;5050887;28;20899;-41
2022/12/29 14:43:38;;;;;;;15.50;7.35;;;;;;;;;;5054467;28;20071;-41
2022/12/29 14:46:08;;;;;;;15.60;6.28;;;;;;;;;;5054548;28;20025;-41
2022/12/29 14:48:38;;;;;;;9.90;5.43;;;;;;;;;;5054737;28;20036;-41
2022/12/29 14:51:21;;;;;;;12.60;5.93;;;;;;;;;;5054787;28;20040;-40
2022/12/29 14:53:50;;;;;;;13.00;5.70;;;;;;;;;;5054789;28;20060;-41
2022/12/29 14:56:18;;;;;;;13.43;5.60;;;;;;;;;;5054185;28;20348;-41
2022/12/29 14:58:46;;;;;;;13.27;6.20;;;;;;;;;;5054414;28;20105;-40
2022/12/29 15:01:20;;;;;;;8.68;5.07;;;;;;;;;;5054333;28;20509;-41
2022/12/29 15:03:49;;;;;;;15.13;6.25;;;;;;;;;;5054205;28;20074;-41
2022/12/29 15:06:18;;;;;;;12.07;5.28;;;;;;;;;;5054241;28;20544;-41
2022/12/29 15:09:04;;;;;;;10.43;5.45;;;;;;;;;;5054138;28;20039;-41
2022/12/29 15:11:50;;;;;;;11.48;5.90;;;;;;;;;;5053887;28;20124;-41
2022/12/29 15:14:34;;;;;;;10.13;5.82;;;;;;;;;;5053849;28;20044;-40
2022/12/29 15:17:00;;;;;;;16.27;6.68;;;;;;;;;;5054001;28;20064;-41
2022/12/29 15:19:26;;;;;;;18.88;7.55;;;;;;;;;;5054210;28;20060;-41
2022/12/29 15:21:53;;;;;;;11.18;6.10;;;;;;;;;;5054250;28;20033;-41
2022/12/29 15:24:19;;;;;;;10.80;5.93;;;;;;;;;;5053899;28;20096;-41
2022/12/29 15:26:46;;;;;;;13.93;6.20;;;;;;;;;;5054041;28;20108;-42